Airport View

Enter AWOS ICAO identifier for current METAR.

ex. KFNL

KBXK 202325Z AUTO 00000KT 10SM CLR 34/00 A2975 RMK A01

20 Oct 2020 23:25

Frequency: 119.625

Phone: 623-386-7627

Other Area AWOS: KGYR - KGEU - KLUF - KPHX

TAF KLUF 202000Z 2020/2202 VRB06KT 9999 SKC QNH2971INS TX34/2022Z TN14/2114Z